Livingston, Kentucky
Current Conditions -  °F | °C
As of 2:53 AM on Thursday 27 Nov 2014 (Local Time) from KLOZ Reporting Station
Light Snow Light Snow  
Wind Chill: 35°   Ceiling: 600
Heat Index: 35°   Visibility: 5mi
Dew Point: 32°   Wind: 3mph
Humidity: 89%   Direction: 310°NW
Pressure: 30.01"   Gusts: NA
Location:  37.3°N, 84.21°W
Report Text: KLOZ 270753Z AUTO 31003KT 5SM -SN BR BKN006 OVC020 02/00 A3001 RMK AO2 RAE33UPB40E46SNB46 SLP165 P0001 T00170000
Loading
Personal Weather Stations






























Interactive Weather Map New forecast layout! Learn more

10-Day Weather Forecast

Advertisements
Track Severe Weather on mobile